Time;durP1;ratioP1;P1;durP2;ratioP2;P2;SDS_P1;SDS_P2;PMS_P1;PMS_P2;Temp;Humidity;BMP_temperature;BMP_pressure;BME280_temperature;BME280_humidity;BME280_pressure;Samples;Min_cycle;Max_cycle;Signal;HPM_P1;HPM_P2
2022/03/06 00:01:05;;;;;;;37.57;23.57;;;-0.10;99.90;;;;;;5026615;28;20579;-66
2022/03/06 00:03:31;;;;;;;35.90;21.33;;;-0.10;99.90;;;;;;5012151;28;20180;-66
2022/03/06 00:05:57;;;;;;;28.90;20.00;;;-0.20;99.90;;;;;;5018519;28;20179;-67
2022/03/06 00:08:23;;;;;;;28.33;18.50;;;-0.20;99.90;;;;;;5032077;28;20183;-66
2022/03/06 00:10:49;;;;;;;24.93;17.87;;;-0.20;99.90;;;;;;5030220;28;20234;-66
2022/03/06 00:13:15;;;;;;;26.20;18.10;;;-0.30;99.90;;;;;;5032866;28;20531;-67
2022/03/06 00:15:43;;;;;;;21.93;17.03;;;-0.30;99.90;;;;;;5015894;28;20271;-66
2022/03/06 00:18:09;;;;;;;20.63;17.13;;;-0.30;99.90;;;;;;5025142;28;20196;-66
2022/03/06 00:20:35;;;;;;;21.67;16.93;;;-0.30;99.90;;;;;;5040075;28;20199;-68
2022/03/06 00:23:02;;;;;;;24.73;18.30;;;-0.40;99.90;;;;;;5040996;28;20172;-66
2022/03/06 00:25:27;;;;;;;23.23;16.87;;;-0.40;99.90;;;;;;5019707;28;20215;-66
2022/03/06 00:27:53;;;;;;;23.30;16.73;;;-0.50;99.90;;;;;;5013123;28;20208;-66
2022/03/06 00:30:19;;;;;;;25.33;16.80;;;-0.50;99.90;;;;;;5024528;28;20264;-66
2022/03/06 00:32:44;;;;;;;24.87;18.07;;;-0.50;99.90;;;;;;5031507;28;20266;-66
2022/03/06 00:35:10;;;;;;;21.07;16.20;;;-0.50;99.90;;;;;;5013387;28;20199;-66
2022/03/06 00:37:36;;;;;;;24.13;18.00;;;-0.50;99.90;;;;;;5013005;28;20199;-66
2022/03/06 00:40:04;;;;;;;21.00;16.43;;;-0.60;99.90;;;;;;5026803;28;20198;-66
2022/03/06 00:42:29;;;;;;;20.33;16.70;;;-0.60;99.90;;;;;;5032557;28;20167;-66
2022/03/06 00:44:55;;;;;;;27.70;17.50;;;-0.60;99.90;;;;;;5016550;28;20183;-66
2022/03/06 00:47:21;;;;;;;28.40;18.37;;;-0.60;99.90;;;;;;5012961;28;20199;-66
2022/03/06 00:49:46;;;;;;;21.90;16.70;;;-0.60;99.90;;;;;;5025149;28;20282;-66
2022/03/06 00:52:13;;;;;;;23.33;16.70;;;-0.70;99.90;;;;;;5032346;28;20176;-66
2022/03/06 00:54:38;;;;;;;29.37;17.93;;;-0.70;99.90;;;;;;5020961;28;20207;-66
2022/03/06 00:57:04;;;;;;;26.85;18.20;;;-0.80;99.90;;;;;;5021297;28;20183;-67
2022/03/06 00:59:34;;;;;;;23.37;17.27;;;-0.80;99.90;;;;;;5030158;28;20172;-66
2022/03/06 01:02:06;;;;;;;27.40;18.10;;;-0.90;99.90;;;;;;5016828;28;20188;-66
2022/03/06 01:04:32;;;;;;;28.33;18.70;;;-0.90;99.90;;;;;;5046528;28;20218;-66
2022/03/06 01:06:58;;;;;;;23.60;17.17;;;-0.90;99.90;;;;;;5016614;28;20184;-66
2022/03/06 01:09:23;;;;;;;22.67;16.93;;;-0.90;99.90;;;;;;5012399;28;20269;-66
2022/03/06 01:11:49;;;;;;;24.27;17.87;;;-0.90;99.90;;;;;;5022916;28;20187;-66
2022/03/06 01:14:15;;;;;;;25.60;16.63;;;-0.90;99.90;;;;;;5030096;28;20218;-66
2022/03/06 01:16:40;;;;;;;27.83;18.80;;;-1.00;99.90;;;;;;5021277;28;20188;-66
2022/03/06 01:19:06;;;;;;;26.37;18.73;;;-1.00;99.90;;;;;;5012401;28;20800;-67
2022/03/06 01:21:31;;;;;;;26.90;18.70;;;-1.10;99.90;;;;;;5031963;28;20198;-67
2022/03/06 01:23:57;;;;;;;38.90;21.20;;;-1.10;99.90;;;;;;5031791;28;20190;-66
2022/03/06 01:26:23;;;;;;;27.67;18.80;;;-1.10;99.90;;;;;;5012099;28;20183;-66
2022/03/06 01:28:48;;;;;;;23.57;18.30;;;-1.00;99.90;;;;;;5010947;28;20188;-66
2022/03/06 01:31:14;;;;;;;31.90;18.93;;;-1.10;99.90;;;;;;5027442;28;20207;-66
2022/03/06 01:33:40;;;;;;;34.60;20.30;;;-1.10;99.90;;;;;;5030314;28;20187;-66
2022/03/06 01:36:05;;;;;;;26.43;19.60;;;-1.10;99.90;;;;;;5020907;28;20191;-67
2022/03/06 01:38:31;;;;;;;31.80;19.30;;;-1.20;99.90;;;;;;5015472;28;20240;-66
2022/03/06 01:40:57;;;;;;;36.97;21.43;;;-1.20;99.90;;;;;;5011977;28;20196;-66
2022/03/06 01:43:22;;;;;;;27.43;18.60;;;-1.20;99.90;;;;;;5022368;28;20592;-66
2022/03/06 01:45:48;;;;;;;26.43;17.73;;;-1.20;99.90;;;;;;5012237;28;20194;-66
2022/03/06 01:48:14;;;;;;;24.80;17.07;;;-1.20;99.90;;;;;;5018489;28;20188;-66
2022/03/06 01:50:40;;;;;;;23.50;17.13;;;-1.30;99.90;;;;;;5011846;28;20215;-67
2022/03/06 01:53:08;;;;;;;29.50;18.77;;;-1.30;99.90;;;;;;5016249;28;20185;-66
2022/03/06 01:55:35;;;;;;;27.50;18.17;;;-1.30;99.90;;;;;;5017381;28;20229;-66
2022/03/06 01:58:03;;;;;;;27.27;18.63;;;-1.30;99.90;;;;;;5010311;28;20196;-66
2022/03/06 02:00:32;;;;;;;25.67;18.73;;;-1.30;99.90;;;;;;5017128;28;20206;-66
2022/03/06 02:02:58;;;;;;;27.97;18.73;;;-1.40;99.90;;;;;;5017134;28;20192;-66
2022/03/06 02:05:24;;;;;;;26.43;18.07;;;-1.30;99.90;;;;;;5017116;28;20233;-66
2022/03/06 02:07:50;;;;;;;23.13;16.57;;;-1.40;99.90;;;;;;5031545;28;20175;-67
2022/03/06 02:10:15;;;;;;;24.80;18.17;;;-1.50;99.90;;;;;;5030501;28;20194;-66
2022/03/06 02:12:42;;;;;;;28.07;18.43;;;-1.50;99.90;;;;;;5035606;28;20179;-66
2022/03/06 02:15:10;;;;;;;31.50;18.93;;;-1.50;99.90;;;;;;5019057;28;20241;-66
2022/03/06 02:17:37;;;;;;;26.70;18.23;;;-1.50;99.90;;;;;;5015829;28;20196;-67
2022/03/06 02:20:14;;;;;;;24.93;18.17;;;-1.50;99.90;;;;;;5014930;28;20243;-66
2022/03/06 02:22:46;;;;;;;26.60;17.73;;;-1.50;99.90;;;;;;5015503;28;20165;-67
2022/03/06 02:25:18;;;;;;;25.47;18.07;;;-1.50;99.90;;;;;;5031466;28;20305;-66
2022/03/06 02:27:45;;;;;;;27.10;17.43;;;-1.60;99.90;;;;;;5034049;28;20278;-66
2022/03/06 02:30:14;;;;;;;27.43;18.47;;;-1.60;99.90;;;;;;5017662;28;20204;-66
2022/03/06 02:32:40;;;;;;;20.70;16.93;;;-1.60;99.90;;;;;;5015127;28;20230;-66
2022/03/06 02:35:08;;;;;;;27.20;18.50;;;-1.60;99.90;;;;;;5015006;28;20192;-66
2022/03/06 02:37:34;;;;;;;23.93;17.60;;;-1.70;99.90;;;;;;5014859;28;20196;-66
2022/03/06 02:40:01;;;;;;;23.63;17.83;;;-1.60;99.90;;;;;;5014627;28;20207;-66
2022/03/06 02:42:35;;;;;;;23.67;18.57;;;-1.60;99.90;;;;;;5025257;28;20498;-66
2022/03/06 02:45:09;;;;;;;27.63;17.47;;;-1.60;99.90;;;;;;5034844;28;20175;-66
2022/03/06 02:47:35;;;;;;;25.60;17.97;;;-1.60;99.90;;;;;;5023434;28;20194;-66
2022/03/06 02:50:02;;;;;;;22.23;18.13;;;-1.60;99.90;;;;;;5032279;28;20219;-66
2022/03/06 02:52:28;;;;;;;21.43;16.70;;;-1.60;99.90;;;;;;5032616;28;20657;-66
2022/03/06 02:54:54;;;;;;;25.50;18.07;;;-1.70;99.90;;;;;;5022037;28;20184;-66
2022/03/06 02:57:19;;;;;;;38.30;22.33;;;-1.70;99.90;;;;;;5019101;28;20230;-66
2022/03/06 02:59:45;;;;;;;32.90;20.23;;;-1.60;99.90;;;;;;5034561;28;20261;-66
2022/03/06 03:02:10;;;;;;;28.03;20.00;;;-1.60;99.90;;;;;;5026335;28;20254;-66
2022/03/06 03:04:38;;;;;;;30.67;20.93;;;-1.60;99.90;;;;;;5017296;28;20180;-67
2022/03/06 03:07:05;;;;;;;33.47;22.07;;;-1.70;99.90;;;;;;5033153;28;20629;-66
2022/03/06 03:09:31;;;;;;;34.83;20.60;;;-1.60;99.90;;;;;;5030150;28;20184;-67
2022/03/06 03:11:57;;;;;;;45.43;24.30;;;-1.60;99.90;;;;;;5012930;28;20595;-67
2022/03/06 03:14:23;;;;;;;52.53;27.33;;;-1.50;99.90;;;;;;5015295;28;20518;-67
2022/03/06 03:16:49;;;;;;;50.23;28.17;;;-1.50;99.90;;;;;;5033248;28;20679;-66
2022/03/06 03:19:14;;;;;;;143.57;50.57;;;-1.50;99.90;;;;;;5032600;28;20207;-66
2022/03/06 03:21:41;;;;;;;29.93;18.97;;;-1.50;99.90;;;;;;5031659;28;20566;-67
2022/03/06 03:24:07;;;;;;;27.10;20.23;;;-1.40;99.90;;;;;;5032390;28;20175;-66
2022/03/06 03:26:33;;;;;;;43.73;25.90;;;-1.40;99.90;;;;;;5014925;28;20184;-67
2022/03/06 03:28:59;;;;;;;35.97;21.43;;;-1.30;99.90;;;;;;5014204;28;20565;-67
2022/03/06 03:31:24;;;;;;;31.70;20.23;;;-1.30;99.90;;;;;;5028733;28;20203;-67
2022/03/06 03:33:50;;;;;;;43.80;23.83;;;-1.30;99.90;;;;;;5031231;28;20179;-67
2022/03/06 03:36:16;;;;;;;29.13;19.87;;;-1.20;99.90;;;;;;5014019;28;20180;-66
2022/03/06 03:38:41;;;;;;;25.40;19.27;;;-1.20;99.90;;;;;;5013197;28;20740;-67
2022/03/06 03:41:08;;;;;;;28.60;18.60;;;-1.20;99.90;;;;;;5031346;28;20595;-66
2022/03/06 03:43:34;;;;;;;31.30;21.17;;;-1.20;99.90;;;;;;5032132;28;20530;-66
2022/03/06 03:46:00;;;;;;;28.53;18.30;;;-1.20;99.90;;;;;;5014732;28;20180;-66
2022/03/06 03:48:29;;;;;;;57.57;27.77;;;-1.10;99.90;;;;;;5012644;28;20663;-66
2022/03/06 03:50:55;;;;;;;41.13;24.27;;;-1.20;99.90;;;;;;5028882;28;20216;-66
2022/03/06 03:53:22;;;;;;;35.10;20.50;;;-1.10;99.90;;;;;;5032059;28;20229;-66
2022/03/06 03:55:48;;;;;;;23.57;17.47;;;-1.10;99.90;;;;;;5026237;28;20211;-66
2022/03/06 03:58:14;;;;;;;23.10;17.10;;;-1.20;99.90;;;;;;5033361;28;20203;-66
2022/03/06 04:00:42;;;;;;;24.20;17.10;;;-1.20;99.90;;;;;;5022522;28;20282;-66
2022/03/06 04:03:07;;;;;;;24.30;17.00;;;-1.20;99.90;;;;;;5024828;28;20653;-66
2022/03/06 04:05:33;;;;;;;26.37;17.07;;;-1.20;99.90;;;;;;5042447;28;20175;-66
2022/03/06 04:07:59;;;;;;;20.10;17.30;;;-1.20;99.90;;;;;;5038283;28;20588;-66
2022/03/06 04:10:24;;;;;;;22.27;16.53;;;-1.20;99.90;;;;;;5014424;28;20539;-66
2022/03/06 04:12:50;;;;;;;20.77;15.90;;;-1.10;99.90;;;;;;5017525;28;20233;-66
2022/03/06 04:15:16;;;;;;;21.77;16.70;;;-1.00;99.90;;;;;;5032088;28;20235;-66
2022/03/06 04:17:41;;;;;;;22.03;16.73;;;-0.90;99.90;;;;;;5029016;28;20203;-66
2022/03/06 04:20:07;;;;;;;21.90;16.67;;;-0.80;99.90;;;;;;5013503;28;20202;-66
2022/03/06 04:22:33;;;;;;;23.37;16.80;;;-0.80;99.90;;;;;;5031518;28;20168;-66
2022/03/06 04:24:59;;;;;;;23.60;16.97;;;-0.80;99.90;;;;;;5032581;28;20171;-66
2022/03/06 04:27:24;;;;;;;24.50;18.53;;;-0.70;99.90;;;;;;5012016;28;20168;-66
2022/03/06 04:29:50;;;;;;;23.33;16.63;;;-0.60;99.90;;;;;;5013393;28;20200;-66
2022/03/06 04:32:16;;;;;;;23.80;17.10;;;-0.60;99.90;;;;;;5012917;28;20176;-66
2022/03/06 04:34:41;;;;;;;21.03;16.37;;;-0.50;99.90;;;;;;5023138;28;20179;-66
2022/03/06 04:37:07;;;;;;;33.40;21.03;;;-0.40;99.90;;;;;;5032564;28;20172;-66
2022/03/06 04:39:33;;;;;;;39.47;22.97;;;-0.50;99.90;;;;;;5021588;28;20644;-66
2022/03/06 04:41:58;;;;;;;36.13;24.23;;;-0.40;99.90;;;;;;5012653;28;20172;-66
2022/03/06 04:44:24;;;;;;;28.30;19.00;;;-0.30;99.90;;;;;;5023184;28;20185;-66
2022/03/06 04:46:50;;;;;;;23.97;17.60;;;-0.30;99.90;;;;;;5032638;28;20167;-66
2022/03/06 04:49:15;;;;;;;30.60;19.03;;;-0.20;99.90;;;;;;5020500;28;20206;-66
2022/03/06 04:51:41;;;;;;;24.73;17.80;;;-0.30;99.90;;;;;;5012355;28;20212;-66
2022/03/06 04:54:07;;;;;;;30.47;20.33;;;-0.30;99.90;;;;;;5016580;28;20286;-66
2022/03/06 04:56:34;;;;;;;39.00;23.33;;;-0.30;99.90;;;;;;5012636;28;20199;-66
2022/03/06 04:58:59;;;;;;;31.10;20.67;;;-0.30;99.90;;;;;;5027232;28;20199;-66
2022/03/06 05:01:25;;;;;;;30.07;19.73;;;-0.30;99.90;;;;;;5018797;28;20728;-66
2022/03/06 05:03:51;;;;;;;29.80;19.93;;;-0.30;99.90;;;;;;5012247;28;20168;-66
2022/03/06 05:06:16;;;;;;;29.00;19.60;;;-0.20;99.90;;;;;;5013330;28;20630;-66
2022/03/06 05:08:42;;;;;;;23.80;18.80;;;-0.10;99.90;;;;;;5011489;28;20187;-66
2022/03/06 05:11:07;;;;;;;22.53;17.73;;;-0.10;99.90;;;;;;5020364;28;20218;-66
2022/03/06 05:13:33;;;;;;;26.83;19.17;;;-0.10;99.90;;;;;;5013143;28;20223;-66
2022/03/06 05:15:59;;;;;;;23.17;18.87;;;-0.10;99.90;;;;;;5020097;28;20179;-66
2022/03/06 05:18:24;;;;;;;26.60;18.70;;;0.00;99.90;;;;;;5031802;28;20211;-66
2022/03/06 05:20:50;;;;;;;22.53;18.70;;;0.00;99.90;;;;;;5025909;28;20196;-66
2022/03/06 05:23:17;;;;;;;21.20;16.77;;;0.00;99.90;;;;;;5010744;28;20169;-66
2022/03/06 05:25:43;;;;;;;20.40;17.63;;;0.00;99.90;;;;;;5016138;28;20541;-66
2022/03/06 05:28:09;;;;;;;21.43;17.20;;;0.00;99.90;;;;;;5031670;28;20543;-66
2022/03/06 05:30:35;;;;;;;22.07;17.60;;;0.00;99.90;;;;;;5014934;28;20199;-65
2022/03/06 05:33:01;;;;;;;25.37;16.53;;;0.00;99.90;;;;;;5011603;28;20271;-66
2022/03/06 05:35:27;;;;;;;23.60;18.50;;;-0.10;99.90;;;;;;5010746;28;20175;-66
2022/03/06 05:37:52;;;;;;;19.60;16.43;;;-0.10;99.90;;;;;;5021610;28;20199;-66
2022/03/06 05:40:18;;;;;;;25.77;18.20;;;-0.10;99.90;;;;;;5029229;28;20232;-66
2022/03/06 05:42:44;;;;;;;22.77;17.43;;;-0.10;99.90;;;;;;5021855;28;20211;-66
2022/03/06 05:45:09;;;;;;;23.27;17.40;;;-0.10;99.90;;;;;;5011566;28;20175;-66
2022/03/06 05:47:35;;;;;;;19.33;16.63;;;-0.10;99.90;;;;;;5010705;28;20172;-66
2022/03/06 05:50:02;;;;;;;22.57;15.50;;;-0.20;99.90;;;;;;5011483;28;20697;-66
2022/03/06 05:52:27;;;;;;;21.57;16.17;;;-0.20;99.90;;;;;;5015779;28;20175;-66
2022/03/06 05:54:53;;;;;;;19.73;15.77;;;-0.20;99.90;;;;;;5030052;28;20214;-66
2022/03/06 05:57:19;;;;;;;22.23;16.60;;;-0.20;99.90;;;;;;5017021;28;20541;-66
2022/03/06 05:59:44;;;;;;;24.00;17.33;;;-0.20;99.90;;;;;;5011891;28;20196;-66
2022/03/06 06:02:10;;;;;;;20.10;17.37;;;-0.20;99.90;;;;;;5022635;28;20172;-66
2022/03/06 06:04:35;;;;;;;22.70;17.03;;;-0.20;99.90;;;;;;5027534;28;20199;-66
2022/03/06 06:07:01;;;;;;;20.03;15.87;;;-0.30;99.90;;;;;;5017310;28;20214;-66
2022/03/06 06:09:27;;;;;;;21.37;16.33;;;-0.40;99.90;;;;;;5027629;28;20191;-68
2022/03/06 06:11:52;;;;;;;25.07;17.50;;;-0.20;99.90;;;;;;5011551;28;20176;-66
2022/03/06 06:14:18;;;;;;;26.70;17.07;;;-0.30;99.90;;;;;;5029038;28;20179;-65
2022/03/06 06:16:44;;;;;;;24.97;18.60;;;-0.30;99.90;;;;;;5029979;28;20541;-65
2022/03/06 06:19:10;;;;;;;23.83;18.10;;;-0.40;99.90;;;;;;5015283;28;20310;-65
2022/03/06 06:21:35;;;;;;;23.40;17.17;;;-0.40;99.90;;;;;;5021329;28;20245;-66
2022/03/06 06:24:01;;;;;;;26.17;18.03;;;-0.50;99.90;;;;;;5029630;28;20600;-66
2022/03/06 06:26:27;;;;;;;20.73;16.63;;;-0.40;99.90;;;;;;5024604;28;20673;-66
2022/03/06 06:28:56;;;;;;;24.50;17.60;;;-0.50;99.90;;;;;;5010155;28;20180;-67
2022/03/06 06:31:24;;;;;;;27.60;18.27;;;-0.50;99.90;;;;;;5016794;28;20195;-66
2022/03/06 06:33:51;;;;;;;25.93;19.07;;;-0.50;99.90;;;;;;5031005;28;20191;-66
2022/03/06 06:36:17;;;;;;;24.37;17.93;;;-0.50;99.90;;;;;;5017259;28;20219;-65
2022/03/06 06:38:43;;;;;;;24.77;20.57;;;-0.50;99.90;;;;;;5009091;28;20196;-65
2022/03/06 06:41:09;;;;;;;20.40;17.80;;;-0.50;99.90;;;;;;5022957;28;20207;-66
2022/03/06 06:43:35;;;;;;;26.87;19.03;;;-0.50;99.90;;;;;;5030872;28;20668;-66
2022/03/06 06:46:00;;;;;;;22.83;17.60;;;-0.50;99.90;;;;;;5019543;28;20183;-66
2022/03/06 06:48:26;;;;;;;24.40;16.97;;;-0.50;99.90;;;;;;5011131;28;20176;-66
2022/03/06 06:50:52;;;;;;;20.60;15.87;;;-0.50;99.90;;;;;;5025722;28;20246;-65
2022/03/06 06:53:17;;;;;;;26.43;17.50;;;-0.50;99.90;;;;;;5029454;28;20225;-66
2022/03/06 06:55:43;;;;;;;21.53;17.83;;;-0.40;99.90;;;;;;5016403;28;20185;-66
2022/03/06 06:58:09;;;;;;;24.23;18.33;;;-0.30;99.90;;;;;;5012121;28;20709;-66
2022/03/06 07:00:35;;;;;;;26.93;18.53;;;-0.20;99.90;;;;;;5027088;28;20200;-65
2022/03/06 07:03:00;;;;;;;26.20;18.93;;;-0.10;99.90;;;;;;5032900;28;20682;-65
2022/03/06 07:05:26;;;;;;;25.03;19.43;;;0.00;99.90;;;;;;5015214;28;20191;-66
2022/03/06 07:07:53;;;;;;;22.40;18.27;;;0.10;99.90;;;;;;5014725;28;20231;-66
2022/03/06 07:10:19;;;;;;;25.63;17.80;;;0.20;99.90;;;;;;5029865;28;20242;-65
2022/03/06 07:12:47;;;;;;;25.50;19.50;;;0.20;99.90;;;;;;5005872;28;20604;-66
2022/03/06 07:15:13;;;;;;;24.67;19.50;;;0.30;99.90;;;;;;5033298;28;20179;-66
2022/03/06 07:17:39;;;;;;;25.67;20.03;;;0.40;99.90;;;;;;5032279;28;20541;-66
2022/03/06 07:20:06;;;;;;;24.13;21.73;;;0.50;99.90;;;;;;5033559;28;20203;-66
2022/03/06 07:22:32;;;;;;;25.43;22.20;;;0.60;99.90;;;;;;5014389;28;20246;-66
2022/03/06 07:24:57;;;;;;;25.20;20.43;;;0.70;99.90;;;;;;5012611;28;20588;-66
2022/03/06 07:27:23;;;;;;;24.87;19.13;;;0.80;99.90;;;;;;5028231;28;20211;-66
2022/03/06 07:29:49;;;;;;;29.20;19.23;;;1.00;99.90;;;;;;5033508;28;20568;-66
2022/03/06 07:32:14;;;;;;;23.60;18.33;;;1.20;99.90;;;;;;5031868;28;20188;-66
2022/03/06 07:34:40;;;;;;;26.83;19.20;;;1.40;99.90;;;;;;5032296;28;20210;-66
2022/03/06 07:37:06;;;;;;;25.30;18.47;;;1.60;99.90;;;;;;5020083;28;20183;-66
2022/03/06 07:39:31;;;;;;;20.63;16.37;;;1.80;99.90;;;;;;5027060;28;20676;-66
2022/03/06 07:41:57;;;;;;;24.00;17.70;;;2.20;99.90;;;;;;5031108;28;20558;-66
2022/03/06 07:44:23;;;;;;;20.87;18.17;;;2.40;99.90;;;;;;5032063;28;20214;-66
2022/03/06 07:46:48;;;;;;;22.10;17.40;;;2.60;99.90;;;;;;5016399;28;20554;-66
2022/03/06 07:49:14;;;;;;;24.97;17.37;;;2.90;99.90;;;;;;5013798;28;20175;-66
2022/03/06 07:51:39;;;;;;;31.87;24.37;;;3.10;99.90;;;;;;5027776;28;20252;-66
2022/03/06 07:54:07;;;;;;;30.57;22.33;;;3.30;99.90;;;;;;5031645;28;20175;-66
2022/03/06 07:56:33;;;;;;;26.00;18.37;;;3.40;99.90;;;;;;5018854;28;20591;-66
2022/03/06 07:58:58;;;;;;;22.50;18.03;;;3.70;99.90;;;;;;5012053;28;20204;-66
2022/03/06 08:01:24;;;;;;;21.10;16.90;;;4.40;99.90;;;;;;5024296;28;20282;-66
2022/03/06 08:03:50;;;;;;;21.10;15.37;;;5.20;99.90;;;;;;5032708;28;20183;-66
2022/03/06 08:06:15;;;;;;;18.33;14.90;;;5.90;99.90;;;;;;5023439;28;20242;-66
2022/03/06 08:08:43;;;;;;;17.03;14.37;;;6.60;99.90;;;;;;5016508;28;20210;-66
2022/03/06 08:11:08;;;;;;;20.67;16.20;;;6.80;99.90;;;;;;5032887;28;20204;-66
2022/03/06 08:13:34;;;;;;;20.23;15.30;;;6.90;99.90;;;;;;5015371;28;20180;-66
2022/03/06 08:16:00;;;;;;;19.43;15.23;;;7.10;99.90;;;;;;5013100;28;20239;-66
2022/03/06 08:18:25;;;;;;;22.37;14.33;;;7.20;99.90;;;;;;5025473;28;20285;-66
2022/03/06 08:20:51;;;;;;;19.30;15.33;;;7.50;99.90;;;;;;5031110;28;20634;-66
2022/03/06 08:23:16;;;;;;;18.77;14.77;;;7.90;99.90;;;;;;5018840;28;20546;-66
2022/03/06 08:25:42;;;;;;;19.27;14.57;;;8.20;99.90;;;;;;5012929;28;20172;-66
2022/03/06 08:28:08;;;;;;;16.70;14.77;;;8.20;99.90;;;;;;5021441;28;20206;-66
2022/03/06 08:30:33;;;;;;;20.67;15.90;;;8.20;99.90;;;;;;5032721;28;20704;-66
2022/03/06 08:32:59;;;;;;;22.53;17.60;;;8.20;99.90;;;;;;5023847;28;20184;-66
2022/03/06 08:35:24;;;;;;;18.47;15.60;;;8.10;99.90;;;;;;5012690;28;20176;-66
2022/03/06 08:37:50;;;;;;;23.70;15.40;;;8.30;99.90;;;;;;5018845;28;20592;-66
2022/03/06 08:40:16;;;;;;;44.07;16.60;;;8.50;99.90;;;;;;5029946;28;20199;-66
2022/03/06 08:42:42;;;;;;;19.27;14.70;;;8.60;99.90;;;;;;5027026;28;20590;-66
2022/03/06 08:45:08;;;;;;;20.17;15.43;;;8.80;99.90;;;;;;5028610;28;20309;-66
2022/03/06 08:47:34;;;;;;;19.17;14.17;;;9.10;99.90;;;;;;5029023;28;20187;-66
2022/03/06 08:49:59;;;;;;;18.53;15.37;;;9.60;99.90;;;;;;5012305;28;20208;-66
2022/03/06 08:52:25;;;;;;;17.67;14.70;;;10.10;99.90;;;;;;5011697;28;20169;-65
2022/03/06 08:54:51;;;;;;;20.67;15.53;;;9.90;99.90;;;;;;5027016;28;20183;-65
2022/03/06 08:57:16;;;;;;;21.70;14.53;;;9.90;99.80;;;;;;5031901;28;20171;-65
2022/03/06 08:59:42;;;;;;;19.20;15.20;;;9.90;99.90;;;;;;5011437;28;20214;-66
2022/03/06 09:02:08;;;;;;;21.10;14.53;;;9.90;99.90;;;;;;5010492;28;20184;-65
2022/03/06 09:04:33;;;;;;;19.27;15.27;;;9.90;99.70;;;;;;5022591;28;20180;-65
2022/03/06 09:06:59;;;;;;;18.57;14.50;;;9.70;98.90;;;;;;5012062;28;20176;-65
2022/03/06 09:09:25;;;;;;;17.87;14.83;;;9.20;97.70;;;;;;5013118;28;20176;-65
2022/03/06 09:11:51;;;;;;;18.53;14.27;;;8.70;99.00;;;;;;5010698;28;20266;-65
2022/03/06 09:14:16;;;;;;;20.53;16.00;;;8.30;99.60;;;;;;5015841;28;20230;-65
2022/03/06 09:16:42;;;;;;;18.80;15.60;;;8.00;99.80;;;;;;5010688;28;20230;-65
2022/03/06 09:19:08;;;;;;;20.17;15.63;;;8.00;99.90;;;;;;5022826;28;20666;-65
2022/03/06 09:21:33;;;;;;;18.43;15.30;;;7.90;99.20;;;;;;5031318;28;20574;-65
2022/03/06 09:24:00;;;;;;;21.60;16.07;;;7.70;99.60;;;;;;5029430;28;20171;-65
2022/03/06 09:26:25;;;;;;;21.00;15.03;;;7.90;99.90;;;;;;5031556;28;20226;-65
2022/03/06 09:28:51;;;;;;;18.23;15.20;;;8.20;99.90;;;;;;5015767;28;20188;-65
2022/03/06 09:31:17;;;;;;;16.20;13.67;;;8.20;99.90;;;;;;5010389;28;20235;-65
2022/03/06 09:33:42;;;;;;;17.57;14.13;;;8.50;99.40;;;;;;5012700;28;20179;-65
2022/03/06 09:36:08;;;;;;;19.60;13.07;;;8.90;99.90;;;;;;5011952;28;20182;-65
2022/03/06 09:38:34;;;;;;;17.47;13.83;;;9.30;95.70;;;;;;5022836;28;20580;-65
2022/03/06 09:41:04;;;;;;;16.27;14.17;;;9.30;94.70;;;;;;5031147;28;20273;-65
2022/03/06 09:43:30;;;;;;;17.30;13.10;;;9.60;96.50;;;;;;5026462;28;20233;-66
2022/03/06 09:46:05;;;;;;;19.07;14.27;;;9.80;94.30;;;;;;5030900;28;20194;-65
2022/03/06 09:48:31;;;;;;;18.60;15.03;;;9.90;95.00;;;;;;5019820;28;20541;-65
2022/03/06 09:50:57;;;;;;;21.40;14.73;;;10.00;93.40;;;;;;5011669;28;20302;-66
2022/03/06 09:53:23;;;;;;;20.13;15.30;;;10.30;95.00;;;;;;5020597;28;20183;-66
2022/03/06 09:55:49;;;;;;;30.63;18.53;;;10.40;92.50;;;;;;5031261;28;20202;-66
2022/03/06 09:58:15;;;;;;;18.43;14.33;;;10.20;93.60;;;;;;5020769;28;20212;-66
2022/03/06 10:00:41;;;;;;;21.43;16.07;;;10.30;94.00;;;;;;5011308;28;20270;-66
2022/03/06 10:03:07;;;;;;;22.23;17.10;;;10.00;97.90;;;;;;5017911;28;20192;-66
2022/03/06 10:05:38;;;;;;;26.87;17.33;;;9.50;99.90;;;;;;5026388;28;20187;-67
2022/03/06 10:08:23;;;;;;;23.23;17.70;;;9.10;99.90;;;;;;5017749;28;20184;-66
2022/03/06 10:10:55;;;;;;;20.67;17.30;;;9.10;99.90;;;;;;5014121;28;20687;-66
2022/03/06 10:13:30;;;;;;;24.53;17.00;;;9.00;99.90;;;;;;5022826;28;20714;-66
2022/03/06 10:16:06;;;;;;;21.63;17.17;;;8.40;99.90;;;;;;5014282;28;20187;-66
2022/03/06 10:18:35;;;;;;;22.47;17.00;;;8.20;99.90;;;;;;5016085;28;20681;-68
2022/03/06 10:21:10;;;;;;;23.13;17.20;;;8.10;99.90;;;;;;5015775;28;20265;-66
2022/03/06 10:23:36;;;;;;;24.37;17.37;;;8.10;99.90;;;;;;5030873;28;20171;-65
2022/03/06 10:26:04;;;;;;;23.13;16.87;;;8.00;99.90;;;;;;5026042;28;20646;-66
2022/03/06 10:28:30;;;;;;;21.87;16.63;;;8.40;99.90;;;;;;5024007;28;20179;-66
2022/03/06 10:31:04;;;;;;;22.57;16.13;;;9.10;99.90;;;;;;5026638;28;20195;-66
2022/03/06 10:33:30;;;;;;;19.93;16.47;;;9.70;99.90;;;;;;5013607;28;20180;-66
2022/03/06 10:35:58;;;;;;;18.10;16.17;;;9.70;99.90;;;;;;5014009;28;20188;-66
2022/03/06 10:38:29;;;;;;;22.80;16.07;;;9.80;99.20;;;;;;5026783;28;20703;-66
2022/03/06 10:40:59;;;;;;;27.17;17.00;;;9.90;99.90;;;;;;5032375;28;20192;-66
2022/03/06 10:43:33;;;;;;;22.20;16.37;;;10.00;98.90;;;;;;5014750;28;20709;-66
2022/03/06 10:46:19;;;;;;;21.80;16.30;;;10.40;98.70;;;;;;5016352;28;20647;-66
2022/03/06 10:48:58;;;;;;;22.87;16.37;;;10.40;97.50;;;;;;5018609;28;20237;-66
2022/03/06 10:51:25;;;;;;;17.77;15.57;;;10.10;98.40;;;;;;5018989;28;20215;-67
2022/03/06 10:53:55;;;;;;;19.97;16.80;;;9.70;97.60;;;;;;5032845;28;20183;-65
2022/03/06 10:56:21;;;;;;;23.87;17.37;;;9.50;99.60;;;;;;5029083;28;20180;-66
2022/03/06 10:58:47;;;;;;;20.23;16.60;;;9.20;99.90;;;;;;5029961;28;20688;-66
2022/03/06 11:01:14;;;;;;;18.80;16.17;;;9.00;99.90;;;;;;5031657;28;20188;-66
2022/03/06 11:03:40;;;;;;;21.07;16.77;;;9.10;99.90;;;;;;5014098;28;20201;-66
2022/03/06 11:06:08;;;;;;;20.37;16.67;;;9.20;99.90;;;;;;5014663;28;20200;-67
2022/03/06 11:08:34;;;;;;;21.40;15.43;;;9.40;99.90;;;;;;5013281;28;20184;-66
2022/03/06 11:11:00;;;;;;;21.80;16.50;;;9.50;99.90;;;;;;5012844;28;20208;-66
2022/03/06 11:13:30;;;;;;;22.37;16.80;;;9.40;99.90;;;;;;5033008;28;20214;-67
2022/03/06 11:15:57;;;;;;;20.60;16.20;;;9.40;99.90;;;;;;5033949;28;20186;-67
2022/03/06 11:18:24;;;;;;;21.30;15.50;;;9.50;99.90;;;;;;5015465;28;20219;-67
2022/03/06 11:20:52;;;;;;;19.27;15.93;;;9.60;99.70;;;;;;5014168;28;20188;-66
2022/03/06 11:23:22;;;;;;;19.00;15.07;;;9.90;99.10;;;;;;5030793;28;20536;-67
2022/03/06 11:26:08;;;;;;;18.97;15.33;;;10.30;98.30;;;;;;5033847;28;20171;-67
2022/03/06 11:29:11;;;;;;;17.70;14.37;;;10.30;96.00;;;;;;5014370;28;20255;-67
2022/03/06 11:31:46;;;;;;;21.23;16.03;;;10.30;96.40;;;;;;5015461;28;20261;-66
2022/03/06 11:34:21;;;;;;;19.97;14.10;;;10.40;95.60;;;;;;5031962;28;20182;-66
2022/03/06 11:36:48;;;;;;;18.50;14.83;;;10.40;94.60;;;;;;5027511;28;20179;-66
2022/03/06 11:39:35;;;;;;;17.13;14.43;;;10.30;94.60;;;;;;5011843;28;20211;-66
2022/03/06 11:42:05;;;;;;;17.40;13.80;;;10.80;96.10;;;;;;5018487;28;20175;-66
2022/03/06 11:44:36;;;;;;;17.27;13.50;;;11.00;91.90;;;;;;5032848;28;20182;-66
2022/03/06 11:47:36;;;;;;;14.80;12.90;;;11.00;90.20;;;;;;5026654;28;20184;-66
2022/03/06 11:50:03;;;;;;;17.83;13.83;;;11.00;89.80;;;;;;5013270;28;20214;-65
2022/03/06 11:52:34;;;;;;;18.17;13.73;;;10.80;90.50;;;;;;5020908;28;20179;-66
2022/03/06 11:55:03;;;;;;;17.80;14.50;;;10.50;90.70;;;;;;5032990;28;20168;-66
2022/03/06 11:57:39;;;;;;;18.07;14.40;;;10.60;91.50;;;;;;5023175;28;20184;-66
2022/03/06 12:00:19;;;;;;;19.07;14.53;;;10.70;91.90;;;;;;5013077;28;20234;-66
2022/03/06 12:02:52;;;;;;;22.07;16.67;;;10.50;92.30;;;;;;5023929;28;20179;-66
2022/03/06 12:05:20;;;;;;;17.47;14.30;;;10.50;92.00;;;;;;5031738;28;20179;-67
2022/03/06 12:07:48;;;;;;;18.97;16.20;;;10.90;92.40;;;;;;5019347;28;20181;-66
2022/03/06 12:10:16;;;;;;;18.13;15.43;;;11.10;90.20;;;;;;5012919;28;20658;-67
2022/03/06 12:12:43;;;;;;;18.33;14.77;;;10.60;90.40;;;;;;5013882;28;20184;-66
2022/03/06 12:15:17;;;;;;;17.60;15.73;;;10.90;93.20;;;;;;5012826;28;20176;-66
2022/03/06 12:17:44;;;;;;;20.67;15.90;;;11.50;92.10;;;;;;5028056;28;20218;-66
2022/03/06 12:20:22;;;;;;;19.93;15.07;;;11.90;91.10;;;;;;5032467;28;20248;-66
2022/03/06 12:22:49;;;;;;;19.17;15.40;;;12.30;91.10;;;;;;5015577;28;20210;-66
2022/03/06 12:25:19;;;;;;;16.50;14.13;;;12.50;90.80;;;;;;5012758;28;20603;-66
2022/03/06 12:28:03;;;;;;;19.90;14.33;;;12.50;88.50;;;;;;5027891;28;20251;-67
2022/03/06 12:30:35;;;;;;;16.13;14.20;;;11.80;86.40;;;;;;5020208;28;20200;-66